sensor_id;sensor_type;location;lat;lon;timestamp;P1;durP1;ratioP1;P2;durP2;ratioP2
26478;SDS011;14163;-26.142;27.992;2023-04-01T00:02:01;8.00;;;7.30;;
26478;SDS011;14163;-26.142;27.992;2023-04-01T02:04:16;13.17;;;10.03;;
26478;SDS011;14163;-26.142;27.992;2023-04-01T02:06:48;12.20;;;11.00;;
26478;SDS011;14163;-26.142;27.992;2023-04-01T02:09:21;11.20;;;10.17;;
26478;SDS011;14163;-26.142;27.992;2023-04-01T02:11:51;10.70;;;9.53;;
26478;SDS011;14163;-26.142;27.992;2023-04-01T02:14:22;9.80;;;9.00;;
26478;SDS011;14163;-26.142;27.992;2023-04-01T02:16:55;12.90;;;9.70;;
26478;SDS011;14163;-26.142;27.992;2023-04-01T02:19:32;11.57;;;9.87;;
26478;SDS011;14163;-26.142;27.992;2023-04-01T02:22:06;10.60;;;9.57;;
26478;SDS011;14163;-26.142;27.992;2023-04-01T02:24:40;11.60;;;9.30;;
26478;SDS011;14163;-26.142;27.992;2023-04-01T02:27:12;10.13;;;9.13;;
26478;SDS011;14163;-26.142;27.992;2023-04-01T02:29:42;9.57;;;8.67;;
26478;SDS011;14163;-26.142;27.992;2023-04-01T02:32:12;13.37;;;10.70;;
26478;SDS011;14163;-26.142;27.992;2023-04-01T02:34:44;9.53;;;8.63;;
26478;SDS011;14163;-26.142;27.992;2023-04-01T02:37:14;9.60;;;8.80;;
26478;SDS011;14163;-26.142;27.992;2023-04-01T02:39:45;10.70;;;9.60;;
26478;SDS011;14163;-26.142;27.992;2023-04-01T02:42:14;8.87;;;8.17;;
26478;SDS011;14163;-26.142;27.992;2023-04-01T02:44:43;10.47;;;9.40;;
26478;SDS011;14163;-26.142;27.992;2023-04-01T02:47:13;9.80;;;9.00;;
26478;SDS011;14163;-26.142;27.992;2023-04-01T02:49:47;10.50;;;9.13;;
26478;SDS011;14163;-26.142;27.992;2023-04-01T02:52:17;6.63;;;6.13;;
26478;SDS011;14163;-26.142;27.992;2023-04-01T02:54:46;9.43;;;7.00;;
26478;SDS011;14163;-26.142;27.992;2023-04-01T02:57:16;6.63;;;6.00;;
26478;SDS011;14163;-26.142;27.992;2023-04-01T02:59:46;6.10;;;5.50;;
26478;SDS011;14163;-26.142;27.992;2023-04-01T03:02:16;5.53;;;5.03;;
26478;SDS011;14163;-26.142;27.992;2023-04-01T03:04:49;5.90;;;5.40;;
26478;SDS011;14163;-26.142;27.992;2023-04-01T03:07:19;6.27;;;5.60;;
26478;SDS011;14163;-26.142;27.992;2023-04-01T03:09:49;8.07;;;5.93;;
26478;SDS011;14163;-26.142;27.992;2023-04-01T03:12:19;6.10;;;5.60;;
26478;SDS011;14163;-26.142;27.992;2023-04-01T03:14:49;5.60;;;5.10;;
26478;SDS011;14163;-26.142;27.992;2023-04-01T03:17:18;5.20;;;4.90;;
26478;SDS011;14163;-26.142;27.992;2023-04-01T03:19:50;5.60;;;5.20;;
26478;SDS011;14163;-26.142;27.992;2023-04-01T03:22:20;5.73;;;5.33;;
26478;SDS011;14163;-26.142;27.992;2023-04-01T03:24:50;6.07;;;5.47;;
26478;SDS011;14163;-26.142;27.992;2023-04-01T03:27:20;5.80;;;5.33;;
26478;SDS011;14163;-26.142;27.992;2023-04-01T03:29:50;5.57;;;5.17;;
26478;SDS011;14163;-26.142;27.992;2023-04-01T03:32:20;6.23;;;5.73;;
26478;SDS011;14163;-26.142;27.992;2023-04-01T03:34:53;7.27;;;6.57;;
26478;SDS011;14163;-26.142;27.992;2023-04-01T03:37:23;6.43;;;5.93;;
26478;SDS011;14163;-26.142;27.992;2023-04-01T03:39:53;6.67;;;5.77;;
26478;SDS011;14163;-26.142;27.992;2023-04-01T03:42:23;7.33;;;5.93;;
26478;SDS011;14163;-26.142;27.992;2023-04-01T03:44:53;6.53;;;5.27;;
26478;SDS011;14163;-26.142;27.992;2023-04-01T03:47:23;5.87;;;5.37;;
26478;SDS011;14163;-26.142;27.992;2023-04-01T03:49:56;6.10;;;5.50;;
26478;SDS011;14163;-26.142;27.992;2023-04-01T03:52:26;6.00;;;5.37;;
26478;SDS011;14163;-26.142;27.992;2023-04-01T03:54:56;6.30;;;5.70;;
26478;SDS011;14163;-26.142;27.992;2023-04-01T03:57:26;6.43;;;5.53;;
26478;SDS011;14163;-26.142;27.992;2023-04-01T03:59:56;5.57;;;5.07;;
26478;SDS011;14163;-26.142;27.992;2023-04-01T04:02:25;5.53;;;5.03;;
26478;SDS011;14163;-26.142;27.992;2023-04-01T04:04:57;6.70;;;5.70;;
26478;SDS011;14163;-26.142;27.992;2023-04-01T04:07:27;5.80;;;5.40;;
26478;SDS011;14163;-26.142;27.992;2023-04-01T04:09:57;5.90;;;5.30;;
26478;SDS011;14163;-26.142;27.992;2023-04-01T04:12:27;5.73;;;5.23;;
26478;SDS011;14163;-26.142;27.992;2023-04-01T04:14:57;6.90;;;5.43;;
26478;SDS011;14163;-26.142;27.992;2023-04-01T04:17:26;5.60;;;5.20;;
26478;SDS011;14163;-26.142;27.992;2023-04-01T04:19:58;6.73;;;5.40;;
26478;SDS011;14163;-26.142;27.992;2023-04-01T04:22:28;5.27;;;4.80;;
26478;SDS011;14163;-26.142;27.992;2023-04-01T04:24:58;5.77;;;5.27;;
26478;SDS011;14163;-26.142;27.992;2023-04-01T04:27:27;5.33;;;4.93;;
26478;SDS011;14163;-26.142;27.992;2023-04-01T04:29:56;5.13;;;4.80;;
26478;SDS011;14163;-26.142;27.992;2023-04-01T04:32:26;5.63;;;4.97;;
26478;SDS011;14163;-26.142;27.992;2023-04-01T04:34:55;5.47;;;5.00;;
26478;SDS011;14163;-26.142;27.992;2023-04-01T04:37:26;5.47;;;4.93;;
26478;SDS011;14163;-26.142;27.992;2023-04-01T04:39:56;6.33;;;5.30;;
26478;SDS011;14163;-26.142;27.992;2023-04-01T04:42:26;6.17;;;5.67;;
26478;SDS011;14163;-26.142;27.992;2023-04-01T04:44:55;6.50;;;5.90;;
26478;SDS011;14163;-26.142;27.992;2023-04-01T04:47:24;6.17;;;5.57;;
26478;SDS011;14163;-26.142;27.992;2023-04-01T04:49:53;9.60;;;5.47;;
26478;SDS011;14163;-26.142;27.992;2023-04-01T04:52:24;6.03;;;5.53;;
26478;SDS011;14163;-26.142;27.992;2023-04-01T04:54:53;6.57;;;5.93;;
26478;SDS011;14163;-26.142;27.992;2023-04-01T04:57:22;8.53;;;7.63;;
26478;SDS011;14163;-26.142;27.992;2023-04-01T04:59:51;8.20;;;7.30;;
26478;SDS011;14163;-26.142;27.992;2023-04-01T05:02:21;8.10;;;7.43;;
26478;SDS011;14163;-26.142;27.992;2023-04-01T05:04:50;8.87;;;7.83;;
26478;SDS011;14163;-26.142;27.992;2023-04-01T05:07:19;7.70;;;7.00;;
26478;SDS011;14163;-26.142;27.992;2023-04-01T05:09:51;9.60;;;7.23;;
26478;SDS011;14163;-26.142;27.992;2023-04-01T05:12:20;7.07;;;6.47;;
26478;SDS011;14163;-26.142;27.992;2023-04-01T05:14:50;7.47;;;6.70;;
26478;SDS011;14163;-26.142;27.992;2023-04-01T05:17:20;9.07;;;6.47;;
26478;SDS011;14163;-26.142;27.992;2023-04-01T05:19:49;12.03;;;7.93;;
26478;SDS011;14163;-26.142;27.992;2023-04-01T05:22:19;8.77;;;7.90;;
26478;SDS011;14163;-26.142;27.992;2023-04-01T05:24:51;9.10;;;7.53;;
26478;SDS011;14163;-26.142;27.992;2023-04-01T05:27:21;9.50;;;8.17;;
26478;SDS011;14163;-26.142;27.992;2023-04-01T05:29:51;9.63;;;7.77;;
26478;SDS011;14163;-26.142;27.992;2023-04-01T05:32:20;8.30;;;7.50;;
26478;SDS011;14163;-26.142;27.992;2023-04-01T05:34:50;7.73;;;6.93;;
26478;SDS011;14163;-26.142;27.992;2023-04-01T05:37:20;7.33;;;6.63;;
26478;SDS011;14163;-26.142;27.992;2023-04-01T05:39:53;8.83;;;6.07;;
26478;SDS011;14163;-26.142;27.992;2023-04-01T05:42:24;7.23;;;6.63;;
26478;SDS011;14163;-26.142;27.992;2023-04-01T05:44:54;7.87;;;7.07;;
26478;SDS011;14163;-26.142;27.992;2023-04-01T05:47:24;6.43;;;5.87;;
26478;SDS011;14163;-26.142;27.992;2023-04-01T05:49:53;4.37;;;3.97;;
26478;SDS011;14163;-26.142;27.992;2023-04-01T05:52:22;6.50;;;5.17;;
26478;SDS011;14163;-26.142;27.992;2023-04-01T05:54:53;6.17;;;4.10;;
26478;SDS011;14163;-26.142;27.992;2023-04-01T05:57:22;5.23;;;4.83;;
26478;SDS011;14163;-26.142;27.992;2023-04-01T05:59:52;6.37;;;5.77;;
26478;SDS011;14163;-26.142;27.992;2023-04-01T06:02:21;5.87;;;5.00;;
26478;SDS011;14163;-26.142;27.992;2023-04-01T06:04:52;6.00;;;5.37;;
26478;SDS011;14163;-26.142;27.992;2023-04-01T06:07:32;5.90;;;5.40;;
26478;SDS011;14163;-26.142;27.992;2023-04-01T06:10:05;5.30;;;4.87;;
26478;SDS011;14163;-26.142;27.992;2023-04-01T06:12:44;5.90;;;5.40;;
26478;SDS011;14163;-26.142;27.992;2023-04-01T06:15:24;5.50;;;4.90;;
26478;SDS011;14163;-26.142;27.992;2023-04-01T06:21:07;6.17;;;5.10;;
26478;SDS011;14163;-26.142;27.992;2023-04-01T06:23:53;5.37;;;4.97;;
26478;SDS011;14163;-26.142;27.992;2023-04-01T06:26:34;5.20;;;4.70;;
26478;SDS011;14163;-26.142;27.992;2023-04-01T06:35:17;6.30;;;5.40;;
26478;SDS011;14163;-26.142;27.992;2023-04-01T06:43:59;5.60;;;5.20;;
26478;SDS011;14163;-26.142;27.992;2023-04-01T06:46:40;5.30;;;4.90;;
26478;SDS011;14163;-26.142;27.992;2023-04-01T06:49:33;6.27;;;5.53;;
26478;SDS011;14163;-26.142;27.992;2023-04-01T06:52:14;5.77;;;5.27;;
26478;SDS011;14163;-26.142;27.992;2023-04-01T06:54:51;6.07;;;5.50;;
26478;SDS011;14163;-26.142;27.992;2023-04-01T06:57:29;7.27;;;6.03;;
26478;SDS011;14163;-26.142;27.992;2023-04-01T07:00:04;8.17;;;7.10;;
26478;SDS011;14163;-26.142;27.992;2023-04-01T07:02:41;7.63;;;6.90;;
26478;SDS011;14163;-26.142;27.992;2023-04-01T07:05:19;6.53;;;5.93;;
26478;SDS011;14163;-26.142;27.992;2023-04-01T07:07:48;7.93;;;6.83;;
26478;SDS011;14163;-26.142;27.992;2023-04-01T07:10:22;8.73;;;6.67;;
26478;SDS011;14163;-26.142;27.992;2023-04-01T07:12:56;6.77;;;6.07;;
26478;SDS011;14163;-26.142;27.992;2023-04-01T07:15:33;7.17;;;6.57;;
26478;SDS011;14163;-26.142;27.992;2023-04-01T07:18:07;8.77;;;6.67;;
26478;SDS011;14163;-26.142;27.992;2023-04-01T07:20:40;7.87;;;7.10;;
26478;SDS011;14163;-26.142;27.992;2023-04-01T07:23:11;8.20;;;7.10;;
26478;SDS011;14163;-26.142;27.992;2023-04-01T07:25:51;9.90;;;7.70;;
26478;SDS011;14163;-26.142;27.992;2023-04-01T07:28:26;9.10;;;8.20;;
26478;SDS011;14163;-26.142;27.992;2023-04-01T07:31:04;11.70;;;8.50;;
26478;SDS011;14163;-26.142;27.992;2023-04-01T07:33:44;13.10;;;10.10;;
26478;SDS011;14163;-26.142;27.992;2023-04-01T07:36:24;16.17;;;11.53;;
26478;SDS011;14163;-26.142;27.992;2023-04-01T07:39:03;12.13;;;10.83;;
26478;SDS011;14163;-26.142;27.992;2023-04-01T07:41:42;15.37;;;12.13;;
26478;SDS011;14163;-26.142;27.992;2023-04-01T07:44:24;14.60;;;11.77;;
26478;SDS011;14163;-26.142;27.992;2023-04-01T07:47:08;15.70;;;12.40;;
26478;SDS011;14163;-26.142;27.992;2023-04-01T07:49:49;16.27;;;13.77;;
26478;SDS011;14163;-26.142;27.992;2023-04-01T07:52:29;16.10;;;12.80;;
26478;SDS011;14163;-26.142;27.992;2023-04-01T07:55:05;22.43;;;15.43;;
26478;SDS011;14163;-26.142;27.992;2023-04-01T07:57:43;15.60;;;14.00;;
26478;SDS011;14163;-26.142;27.992;2023-04-01T08:00:20;18.00;;;14.67;;
26478;SDS011;14163;-26.142;27.992;2023-04-01T08:05:59;25.87;;;16.03;;
26478;SDS011;14163;-26.142;27.992;2023-04-01T10:13:20;15.60;;;13.80;;
26478;SDS011;14163;-26.142;27.992;2023-04-01T10:19:23;13.83;;;12.40;;
26478;SDS011;14163;-26.142;27.992;2023-04-01T10:28:40;14.50;;;13.00;;
26478;SDS011;14163;-26.142;27.992;2023-04-01T10:31:42;16.00;;;14.30;;
26478;SDS011;14163;-26.142;27.992;2023-04-01T10:34:39;15.30;;;13.70;;
26478;SDS011;14163;-26.142;27.992;2023-04-01T10:37:42;15.30;;;13.80;;
26478;SDS011;14163;-26.142;27.992;2023-04-01T10:40:36;14.67;;;12.97;;
26478;SDS011;14163;-26.142;27.992;2023-04-01T10:49:34;15.70;;;14.10;;
26478;SDS011;14163;-26.142;27.992;2023-04-01T10:52:44;14.33;;;13.13;;
26478;SDS011;14163;-26.142;27.992;2023-04-01T11:11:16;13.97;;;12.77;;
26478;SDS011;14163;-26.142;27.992;2023-04-01T11:17:26;13.50;;;12.30;;
26478;SDS011;14163;-26.142;27.992;2023-04-01T11:23:50;11.87;;;10.33;;
26478;SDS011;14163;-26.142;27.992;2023-04-01T11:26:30;11.63;;;10.63;;
26478;SDS011;14163;-26.142;27.992;2023-04-01T11:32:20;12.50;;;11.40;;
26478;SDS011;14163;-26.142;27.992;2023-04-01T11:35:07;10.93;;;9.93;;
26478;SDS011;14163;-26.142;27.992;2023-04-01T11:38:17;12.23;;;11.17;;
26478;SDS011;14163;-26.142;27.992;2023-04-01T11:40:54;11.53;;;10.53;;
26478;SDS011;14163;-26.142;27.992;2023-04-01T11:43:34;9.33;;;8.63;;
26478;SDS011;14163;-26.142;27.992;2023-04-01T11:46:10;10.53;;;9.63;;
26478;SDS011;14163;-26.142;27.992;2023-04-01T11:51:34;12.03;;;10.97;;
26478;SDS011;14163;-26.142;27.992;2023-04-01T11:54:28;10.20;;;9.40;;
26478;SDS011;14163;-26.142;27.992;2023-04-01T11:57:11;10.83;;;9.93;;
26478;SDS011;14163;-26.142;27.992;2023-04-01T12:00:13;10.23;;;9.43;;
26478;SDS011;14163;-26.142;27.992;2023-04-01T12:03:09;9.20;;;8.50;;
26478;SDS011;14163;-26.142;27.992;2023-04-01T12:05:52;10.00;;;9.10;;
26478;SDS011;14163;-26.142;27.992;2023-04-01T12:08:31;8.97;;;8.17;;
26478;SDS011;14163;-26.142;27.992;2023-04-01T12:11:12;9.90;;;8.90;;
26478;SDS011;14163;-26.142;27.992;2023-04-01T12:13:50;10.63;;;9.53;;
26478;SDS011;14163;-26.142;27.992;2023-04-01T12:16:29;8.17;;;7.57;;
26478;SDS011;14163;-26.142;27.992;2023-04-01T12:19:15;8.43;;;7.77;;
26478;SDS011;14163;-26.142;27.992;2023-04-01T12:22:00;7.77;;;7.17;;
26478;SDS011;14163;-26.142;27.992;2023-04-01T12:24:47;7.47;;;6.90;;
26478;SDS011;14163;-26.142;27.992;2023-04-01T12:27:23;8.00;;;7.37;;
26478;SDS011;14163;-26.142;27.992;2023-04-01T12:36:20;6.17;;;5.83;;
26478;SDS011;14163;-26.142;27.992;2023-04-01T12:39:11;7.20;;;6.60;;
26478;SDS011;14163;-26.142;27.992;2023-04-01T12:41:59;6.03;;;5.60;;
26478;SDS011;14163;-26.142;27.992;2023-04-01T12:50:38;6.43;;;5.93;;
26478;SDS011;14163;-26.142;27.992;2023-04-01T12:53:27;6.70;;;6.10;;
26478;SDS011;14163;-26.142;27.992;2023-04-01T12:56:14;5.87;;;5.43;;
26478;SDS011;14163;-26.142;27.992;2023-04-01T12:58:58;5.93;;;5.53;;
26478;SDS011;14163;-26.142;27.992;2023-04-01T13:02:00;6.53;;;6.03;;
26478;SDS011;14163;-26.142;27.992;2023-04-01T13:07:46;6.10;;;5.70;;
26478;SDS011;14163;-26.142;27.992;2023-04-01T13:10:45;10.00;;;6.30;;
26478;SDS011;14163;-26.142;27.992;2023-04-01T13:13:39;5.77;;;5.27;;
26478;SDS011;14163;-26.142;27.992;2023-04-01T13:16:31;6.77;;;6.20;;
26478;SDS011;14163;-26.142;27.992;2023-04-01T13:19:07;6.90;;;6.40;;
26478;SDS011;14163;-26.142;27.992;2023-04-01T13:21:45;7.17;;;6.57;;
26478;SDS011;14163;-26.142;27.992;2023-04-01T13:24:25;6.63;;;6.10;;
26478;SDS011;14163;-26.142;27.992;2023-04-01T13:27:13;7.50;;;6.90;;
26478;SDS011;14163;-26.142;27.992;2023-04-01T13:29:51;7.07;;;6.57;;
26478;SDS011;14163;-26.142;27.992;2023-04-01T13:32:33;8.70;;;7.90;;
26478;SDS011;14163;-26.142;27.992;2023-04-01T13:35:18;7.40;;;6.77;;
26478;SDS011;14163;-26.142;27.992;2023-04-01T13:37:57;7.43;;;6.53;;
26478;SDS011;14163;-26.142;27.992;2023-04-01T13:40:40;6.00;;;5.50;;
26478;SDS011;14163;-26.142;27.992;2023-04-01T13:43:19;6.80;;;6.20;;
26478;SDS011;14163;-26.142;27.992;2023-04-01T13:46:12;5.53;;;5.13;;
26478;SDS011;14163;-26.142;27.992;2023-04-01T13:52:09;6.53;;;6.03;;
26478;SDS011;14163;-26.142;27.992;2023-04-01T13:55:03;5.87;;;5.37;;
26478;SDS011;14163;-26.142;27.992;2023-04-01T13:57:55;7.00;;;6.33;;
26478;SDS011;14163;-26.142;27.992;2023-04-01T14:00:35;6.00;;;5.50;;
26478;SDS011;14163;-26.142;27.992;2023-04-01T14:03:24;6.47;;;5.97;;
26478;SDS011;14163;-26.142;27.992;2023-04-01T14:09:00;7.83;;;7.23;;
26478;SDS011;14163;-26.142;27.992;2023-04-01T14:11:48;6.67;;;6.07;;
26478;SDS011;14163;-26.142;27.992;2023-04-01T14:14:29;6.00;;;5.50;;
26478;SDS011;14163;-26.142;27.992;2023-04-01T14:17:10;5.90;;;5.40;;
26478;SDS011;14163;-26.142;27.992;2023-04-01T14:23:02;6.30;;;5.80;;
26478;SDS011;14163;-26.142;27.992;2023-04-01T14:26:21;7.27;;;5.77;;
26478;SDS011;14163;-26.142;27.992;2023-04-01T14:29:02;8.30;;;5.63;;
26478;SDS011;14163;-26.142;27.992;2023-04-01T14:31:52;5.90;;;5.40;;
26478;SDS011;14163;-26.142;27.992;2023-04-01T14:34:37;6.03;;;5.60;;
26478;SDS011;14163;-26.142;27.992;2023-04-01T14:37:25;6.40;;;5.80;;
26478;SDS011;14163;-26.142;27.992;2023-04-01T14:40:22;6.43;;;6.03;;
26478;SDS011;14163;-26.142;27.992;2023-04-01T14:43:01;6.03;;;5.53;;
26478;SDS011;14163;-26.142;27.992;2023-04-01T14:45:47;5.93;;;5.50;;
26478;SDS011;14163;-26.142;27.992;2023-04-01T14:48:36;5.70;;;5.23;;
26478;SDS011;14163;-26.142;27.992;2023-04-01T14:51:16;7.83;;;5.53;;
26478;SDS011;14163;-26.142;27.992;2023-04-01T14:53:56;5.50;;;5.20;;
26478;SDS011;14163;-26.142;27.992;2023-04-01T14:56:38;5.77;;;5.37;;
26478;SDS011;14163;-26.142;27.992;2023-04-01T14:59:09;12.40;;;5.77;;
26478;SDS011;14163;-26.142;27.992;2023-04-01T15:01:45;5.40;;;5.00;;
26478;SDS011;14163;-26.142;27.992;2023-04-01T15:04:30;6.13;;;5.73;;
26478;SDS011;14163;-26.142;27.992;2023-04-01T15:07:21;6.50;;;5.90;;
26478;SDS011;14163;-26.142;27.992;2023-04-01T15:10:26;6.33;;;5.63;;
26478;SDS011;14163;-26.142;27.992;2023-04-01T15:13:12;5.47;;;4.97;;
26478;SDS011;14163;-26.142;27.992;2023-04-01T15:15:50;6.37;;;5.87;;
26478;SDS011;14163;-26.142;27.992;2023-04-01T15:18:37;5.63;;;5.20;;
26478;SDS011;14163;-26.142;27.992;2023-04-01T15:21:27;5.20;;;4.90;;
26478;SDS011;14163;-26.142;27.992;2023-04-01T15:24:14;5.87;;;5.47;;
26478;SDS011;14163;-26.142;27.992;2023-04-01T15:26:57;6.73;;;6.13;;
26478;SDS011;14163;-26.142;27.992;2023-04-01T15:29:44;5.70;;;5.30;;
26478;SDS011;14163;-26.142;27.992;2023-04-01T15:32:28;5.77;;;5.27;;
26478;SDS011;14163;-26.142;27.992;2023-04-01T15:35:11;5.60;;;5.20;;
26478;SDS011;14163;-26.142;27.992;2023-04-01T15:37:48;6.10;;;5.60;;
26478;SDS011;14163;-26.142;27.992;2023-04-01T15:40:23;5.90;;;5.40;;
26478;SDS011;14163;-26.142;27.992;2023-04-01T15:43:02;6.10;;;5.70;;
26478;SDS011;14163;-26.142;27.992;2023-04-01T15:45:46;6.17;;;5.77;;
26478;SDS011;14163;-26.142;27.992;2023-04-01T15:48:33;7.70;;;7.00;;
26478;SDS011;14163;-26.142;27.992;2023-04-01T15:51:17;8.50;;;7.80;;
26478;SDS011;14163;-26.142;27.992;2023-04-01T15:54:14;8.07;;;7.03;;
26478;SDS011;14163;-26.142;27.992;2023-04-01T15:57:15;6.43;;;6.03;;
26478;SDS011;14163;-26.142;27.992;2023-04-01T16:00:06;8.60;;;7.80;;
26478;SDS011;14163;-26.142;27.992;2023-04-01T16:02:46;9.00;;;8.20;;
26478;SDS011;14163;-26.142;27.992;2023-04-01T16:27:02;10.80;;;9.73;;
26478;SDS011;14163;-26.142;27.992;2023-04-01T16:29:36;10.43;;;9.43;;
26478;SDS011;14163;-26.142;27.992;2023-04-01T16:32:15;12.63;;;11.43;;
26478;SDS011;14163;-26.142;27.992;2023-04-01T16:34:58;12.50;;;11.40;;
26478;SDS011;14163;-26.142;27.992;2023-04-01T16:37:45;16.57;;;14.97;;
26478;SDS011;14163;-26.142;27.992;2023-04-01T16:40:22;13.20;;;11.90;;
26478;SDS011;14163;-26.142;27.992;2023-04-01T16:43:10;10.43;;;9.53;;
26478;SDS011;14163;-26.142;27.992;2023-04-01T16:45:45;9.93;;;9.00;;
26478;SDS011;14163;-26.142;27.992;2023-04-01T16:48:35;12.63;;;11.53;;
26478;SDS011;14163;-26.142;27.992;2023-04-01T16:51:22;9.47;;;8.70;;
26478;SDS011;14163;-26.142;27.992;2023-04-01T16:53:53;10.53;;;9.53;;
26478;SDS011;14163;-26.142;27.992;2023-04-01T16:56:38;10.83;;;9.93;;
26478;SDS011;14163;-26.142;27.992;2023-04-01T16:59:16;11.83;;;10.80;;
26478;SDS011;14163;-26.142;27.992;2023-04-01T17:01:51;12.87;;;10.93;;
26478;SDS011;14163;-26.142;27.992;2023-04-01T17:04:30;11.67;;;10.67;;
26478;SDS011;14163;-26.142;27.992;2023-04-01T17:07:11;11.97;;;11.07;;
26478;SDS011;14163;-26.142;27.992;2023-04-01T17:09:53;14.00;;;12.53;;
26478;SDS011;14163;-26.142;27.992;2023-04-01T17:12:36;15.77;;;14.27;;
26478;SDS011;14163;-26.142;27.992;2023-04-01T17:15:15;18.10;;;16.30;;
26478;SDS011;14163;-26.142;27.992;2023-04-01T17:17:55;16.97;;;15.17;;
26478;SDS011;14163;-26.142;27.992;2023-04-01T17:20:35;14.90;;;13.60;;
26478;SDS011;14163;-26.142;27.992;2023-04-01T17:23:16;18.60;;;15.80;;
26478;SDS011;14163;-26.142;27.992;2023-04-01T17:25:57;15.57;;;14.27;;
26478;SDS011;14163;-26.142;27.992;2023-04-01T17:28:47;16.70;;;15.10;;
26478;SDS011;14163;-26.142;27.992;2023-04-01T17:31:30;14.33;;;13.13;;
26478;SDS011;14163;-26.142;27.992;2023-04-01T17:34:13;14.43;;;12.87;;
26478;SDS011;14163;-26.142;27.992;2023-04-01T17:37:02;14.63;;;13.30;;
26478;SDS011;14163;-26.142;27.992;2023-04-01T17:39:46;14.63;;;13.30;;
26478;SDS011;14163;-26.142;27.992;2023-04-01T17:42:33;16.17;;;14.63;;
26478;SDS011;14163;-26.142;27.992;2023-04-01T17:45:10;20.07;;;17.80;;
26478;SDS011;14163;-26.142;27.992;2023-04-01T17:48:00;15.83;;;14.37;;
26478;SDS011;14163;-26.142;27.992;2023-04-01T17:50:41;17.17;;;15.50;;
26478;SDS011;14163;-26.142;27.992;2023-04-01T17:53:19;19.00;;;16.90;;
26478;SDS011;14163;-26.142;27.992;2023-04-01T17:56:01;19.03;;;17.23;;
26478;SDS011;14163;-26.142;27.992;2023-04-01T17:58:44;18.33;;;16.53;;
26478;SDS011;14163;-26.142;27.992;2023-04-01T18:01:31;18.27;;;16.57;;
26478;SDS011;14163;-26.142;27.992;2023-04-01T18:04:17;20.17;;;17.97;;
26478;SDS011;14163;-26.142;27.992;2023-04-01T18:08:19;21.93;;;19.83;;
26478;SDS011;14163;-26.142;27.992;2023-04-01T18:11:04;22.63;;;19.50;;
26478;SDS011;14163;-26.142;27.992;2023-04-01T18:14:09;23.27;;;20.93;;
26478;SDS011;14163;-26.142;27.992;2023-04-01T18:17:14;24.80;;;21.20;;
26478;SDS011;14163;-26.142;27.992;2023-04-01T18:19:54;24.07;;;21.60;;
26478;SDS011;14163;-26.142;27.992;2023-04-01T18:22:55;23.47;;;21.00;;
26478;SDS011;14163;-26.142;27.992;2023-04-01T18:25:32;24.30;;;21.90;;
26478;SDS011;14163;-26.142;27.992;2023-04-01T18:28:15;25.67;;;22.70;;
26478;SDS011;14163;-26.142;27.992;2023-04-01T18:30:53;24.40;;;21.73;;
26478;SDS011;14163;-26.142;27.992;2023-04-01T18:33:29;25.13;;;22.80;;
26478;SDS011;14163;-26.142;27.992;2023-04-01T18:36:06;23.67;;;21.27;;
26478;SDS011;14163;-26.142;27.992;2023-04-01T18:38:45;23.87;;;21.43;;
26478;SDS011;14163;-26.142;27.992;2023-04-01T18:41:25;23.83;;;21.37;;
26478;SDS011;14163;-26.142;27.992;2023-04-01T18:44:15;22.90;;;20.23;;
26478;SDS011;14163;-26.142;27.992;2023-04-01T18:46:57;23.00;;;20.57;;
26478;SDS011;14163;-26.142;27.992;2023-04-01T18:49:38;22.67;;;19.70;;
26478;SDS011;14163;-26.142;27.992;2023-04-01T18:52:13;23.47;;;19.40;;
26478;SDS011;14163;-26.142;27.992;2023-04-01T18:54:49;20.67;;;18.50;;
26478;SDS011;14163;-26.142;27.992;2023-04-01T18:57:45;22.23;;;18.20;;
26478;SDS011;14163;-26.142;27.992;2023-04-01T19:02:55;21.90;;;19.70;;
26478;SDS011;14163;-26.142;27.992;2023-04-01T19:05:38;23.83;;;18.50;;
26478;SDS011;14163;-26.142;27.992;2023-04-01T19:08:17;20.53;;;17.23;;
26478;SDS011;14163;-26.142;27.992;2023-04-01T19:10:58;18.23;;;16.50;;
26478;SDS011;14163;-26.142;27.992;2023-04-01T19:16:34;17.63;;;15.83;;
26478;SDS011;14163;-26.142;27.992;2023-04-01T19:19:21;18.27;;;16.47;;
26478;SDS011;14163;-26.142;27.992;2023-04-01T19:22:10;18.83;;;17.03;;
26478;SDS011;14163;-26.142;27.992;2023-04-01T19:24:55;20.20;;;18.10;;
26478;SDS011;14163;-26.142;27.992;2023-04-01T19:27:43;19.60;;;17.60;;
26478;SDS011;14163;-26.142;27.992;2023-04-01T19:30:21;26.53;;;18.23;;
26478;SDS011;14163;-26.142;27.992;2023-04-01T19:33:05;21.17;;;19.07;;
26478;SDS011;14163;-26.142;27.992;2023-04-01T19:38:22;24.80;;;17.87;;
26478;SDS011;14163;-26.142;27.992;2023-04-01T19:41:01;20.17;;;17.00;;
26478;SDS011;14163;-26.142;27.992;2023-04-01T19:43:49;23.10;;;19.57;;
26478;SDS011;14163;-26.142;27.992;2023-04-01T19:46:27;24.93;;;21.40;;
26478;SDS011;14163;-26.142;27.992;2023-04-01T19:51:54;47.17;;;33.70;;
26478;SDS011;14163;-26.142;27.992;2023-04-01T19:54:31;50.53;;;34.70;;
26478;SDS011;14163;-26.142;27.992;2023-04-01T19:57:11;50.13;;;34.93;;
26478;SDS011;14163;-26.142;27.992;2023-04-01T19:59:50;40.50;;;30.07;;
26478;SDS011;14163;-26.142;27.992;2023-04-01T20:02:42;36.30;;;29.90;;
26478;SDS011;14163;-26.142;27.992;2023-04-01T20:05:38;35.60;;;26.93;;
26478;SDS011;14163;-26.142;27.992;2023-04-01T20:08:21;29.10;;;25.40;;
26478;SDS011;14163;-26.142;27.992;2023-04-01T20:14:07;31.40;;;25.63;;
26478;SDS011;14163;-26.142;27.992;2023-04-01T20:16:58;27.33;;;24.37;;
26478;SDS011;14163;-26.142;27.992;2023-04-01T20:19:40;30.87;;;24.53;;
26478;SDS011;14163;-26.142;27.992;2023-04-01T20:22:20;26.93;;;23.90;;
26478;SDS011;14163;-26.142;27.992;2023-04-01T20:24:57;26.43;;;23.00;;
26478;SDS011;14163;-26.142;27.992;2023-04-01T20:27:31;26.17;;;23.47;;
26478;SDS011;14163;-26.142;27.992;2023-04-01T20:30:17;23.40;;;20.93;;
26478;SDS011;14163;-26.142;27.992;2023-04-01T20:33:09;26.03;;;20.57;;
26478;SDS011;14163;-26.142;27.992;2023-04-01T20:35:56;23.37;;;21.03;;
26478;SDS011;14163;-26.142;27.992;2023-04-01T20:41:33;22.43;;;19.93;;
26478;SDS011;14163;-26.142;27.992;2023-04-01T20:44:13;22.80;;;20.30;;
26478;SDS011;14163;-26.142;27.992;2023-04-01T20:46:48;24.70;;;20.30;;
26478;SDS011;14163;-26.142;27.992;2023-04-01T20:49:26;24.33;;;21.60;;
26478;SDS011;14163;-26.142;27.992;2023-04-01T20:52:15;23.43;;;20.23;;
26478;SDS011;14163;-26.142;27.992;2023-04-01T20:54:58;21.90;;;19.23;;
26478;SDS011;14163;-26.142;27.992;2023-04-01T20:57:52;24.33;;;20.80;;
26478;SDS011;14163;-26.142;27.992;2023-04-01T21:00:33;25.67;;;20.03;;
26478;SDS011;14163;-26.142;27.992;2023-04-01T21:03:13;21.47;;;18.87;;
26478;SDS011;14163;-26.142;27.992;2023-04-01T21:05:59;22.43;;;20.20;;
26478;SDS011;14163;-26.142;27.992;2023-04-01T21:09:05;21.80;;;19.43;;
26478;SDS011;14163;-26.142;27.992;2023-04-01T21:11:51;22.30;;;19.40;;
26478;SDS011;14163;-26.142;27.992;2023-04-01T21:17:18;22.90;;;20.63;;
26478;SDS011;14163;-26.142;27.992;2023-04-01T21:20:04;22.83;;;19.13;;
26478;SDS011;14163;-26.142;27.992;2023-04-01T21:22:52;20.97;;;18.77;;
26478;SDS011;14163;-26.142;27.992;2023-04-01T21:25:40;21.17;;;19.17;;
26478;SDS011;14163;-26.142;27.992;2023-04-01T21:31:25;20.33;;;18.30;;
26478;SDS011;14163;-26.142;27.992;2023-04-01T21:34:04;18.03;;;16.10;;
26478;SDS011;14163;-26.142;27.992;2023-04-01T21:36:53;20.27;;;17.27;;
26478;SDS011;14163;-26.142;27.992;2023-04-01T21:39:40;18.87;;;16.90;;
26478;SDS011;14163;-26.142;27.992;2023-04-01T21:42:26;16.97;;;15.33;;